sensor_id;sensor_type;location;lat;lon;timestamp;P1;durP1;ratioP1;P2;durP2;ratioP2
65387;SDS011;51992;53.528;49.474;2023-09-30T00:00:25;33.20;;;15.18;;
65387;SDS011;51992;53.528;49.474;2023-09-30T00:02:51;32.03;;;13.35;;
65387;SDS011;51992;53.528;49.474;2023-09-30T00:05:17;25.52;;;11.98;;
65387;SDS011;51992;53.528;49.474;2023-09-30T00:07:45;27.92;;;12.23;;
65387;SDS011;51992;53.528;49.474;2023-09-30T00:10:11;23.33;;;11.95;;
65387;SDS011;51992;53.528;49.474;2023-09-30T00:12:37;22.08;;;10.88;;
65387;SDS011;51992;53.528;49.474;2023-09-30T00:15:02;18.23;;;9.50;;
65387;SDS011;51992;53.528;49.474;2023-09-30T00:17:29;17.65;;;8.52;;
65387;SDS011;51992;53.528;49.474;2023-09-30T00:19:55;14.93;;;7.03;;
65387;SDS011;51992;53.528;49.474;2023-09-30T00:22:21;17.60;;;8.82;;
65387;SDS011;51992;53.528;49.474;2023-09-30T00:24:46;16.27;;;8.50;;
65387;SDS011;51992;53.528;49.474;2023-09-30T00:27:12;17.20;;;8.32;;
65387;SDS011;51992;53.528;49.474;2023-09-30T00:29:38;19.67;;;9.38;;
65387;SDS011;51992;53.528;49.474;2023-09-30T00:32:04;18.00;;;9.75;;
65387;SDS011;51992;53.528;49.474;2023-09-30T00:34:35;24.40;;;11.40;;
65387;SDS011;51992;53.528;49.474;2023-09-30T00:37:01;21.85;;;12.48;;
65387;SDS011;51992;53.528;49.474;2023-09-30T00:39:27;22.20;;;12.20;;
65387;SDS011;51992;53.528;49.474;2023-09-30T00:41:59;21.98;;;13.60;;
65387;SDS011;51992;53.528;49.474;2023-09-30T00:44:26;27.42;;;13.40;;
65387;SDS011;51992;53.528;49.474;2023-09-30T00:46:51;29.45;;;15.60;;
65387;SDS011;51992;53.528;49.474;2023-09-30T00:49:18;28.98;;;15.10;;
65387;SDS011;51992;53.528;49.474;2023-09-30T00:51:44;26.35;;;12.85;;
65387;SDS011;51992;53.528;49.474;2023-09-30T00:54:11;26.85;;;13.70;;
65387;SDS011;51992;53.528;49.474;2023-09-30T00:56:39;25.65;;;14.10;;
65387;SDS011;51992;53.528;49.474;2023-09-30T00:59:07;30.88;;;15.30;;
65387;SDS011;51992;53.528;49.474;2023-09-30T01:01:33;28.17;;;15.00;;
65387;SDS011;51992;53.528;49.474;2023-09-30T01:03:59;36.30;;;17.30;;
65387;SDS011;51992;53.528;49.474;2023-09-30T01:06:24;33.75;;;17.10;;
65387;SDS011;51992;53.528;49.474;2023-09-30T01:08:50;39.80;;;20.00;;
65387;SDS011;51992;53.528;49.474;2023-09-30T01:11:16;52.17;;;23.73;;
65387;SDS011;51992;53.528;49.474;2023-09-30T01:13:43;40.90;;;22.67;;
65387;SDS011;51992;53.528;49.474;2023-09-30T01:16:10;61.40;;;30.83;;
65387;SDS011;51992;53.528;49.474;2023-09-30T01:18:37;63.63;;;32.40;;
65387;SDS011;51992;53.528;49.474;2023-09-30T01:21:03;61.97;;;31.20;;
65387;SDS011;51992;53.528;49.474;2023-09-30T01:23:30;58.13;;;28.52;;
65387;SDS011;51992;53.528;49.474;2023-09-30T01:25:56;58.00;;;28.00;;
65387;SDS011;51992;53.528;49.474;2023-09-30T01:28:21;63.85;;;31.48;;
65387;SDS011;51992;53.528;49.474;2023-09-30T01:30:48;64.32;;;30.60;;
65387;SDS011;51992;53.528;49.474;2023-09-30T01:33:14;60.30;;;26.25;;
65387;SDS011;51992;53.528;49.474;2023-09-30T01:35:42;47.53;;;20.77;;
65387;SDS011;51992;53.528;49.474;2023-09-30T01:38:08;46.38;;;17.42;;
65387;SDS011;51992;53.528;49.474;2023-09-30T01:40:33;50.83;;;15.70;;
65387;SDS011;51992;53.528;49.474;2023-09-30T01:42:59;40.72;;;13.45;;
65387;SDS011;51992;53.528;49.474;2023-09-30T01:45:26;30.52;;;10.73;;
65387;SDS011;51992;53.528;49.474;2023-09-30T01:47:51;29.58;;;9.23;;
65387;SDS011;51992;53.528;49.474;2023-09-30T01:50:17;22.55;;;7.32;;
65387;SDS011;51992;53.528;49.474;2023-09-30T01:52:43;26.30;;;8.43;;
65387;SDS011;51992;53.528;49.474;2023-09-30T01:55:09;25.15;;;8.98;;
65387;SDS011;51992;53.528;49.474;2023-09-30T01:57:34;34.70;;;13.43;;
65387;SDS011;51992;53.528;49.474;2023-09-30T02:00:00;39.17;;;13.65;;
65387;SDS011;51992;53.528;49.474;2023-09-30T02:02:26;46.85;;;17.92;;
65387;SDS011;51992;53.528;49.474;2023-09-30T02:04:52;41.70;;;17.48;;
65387;SDS011;51992;53.528;49.474;2023-09-30T02:07:19;49.45;;;18.80;;
65387;SDS011;51992;53.528;49.474;2023-09-30T02:09:44;45.85;;;19.88;;
65387;SDS011;51992;53.528;49.474;2023-09-30T02:12:10;45.95;;;17.42;;
65387;SDS011;51992;53.528;49.474;2023-09-30T02:14:36;47.35;;;19.73;;
65387;SDS011;51992;53.528;49.474;2023-09-30T02:17:04;46.90;;;19.52;;
65387;SDS011;51992;53.528;49.474;2023-09-30T02:19:30;47.60;;;19.33;;
65387;SDS011;51992;53.528;49.474;2023-09-30T02:21:59;45.53;;;18.50;;
65387;SDS011;51992;53.528;49.474;2023-09-30T02:24:25;52.88;;;18.30;;
65387;SDS011;51992;53.528;49.474;2023-09-30T02:26:50;47.75;;;14.98;;
65387;SDS011;51992;53.528;49.474;2023-09-30T02:29:16;42.83;;;14.13;;
65387;SDS011;51992;53.528;49.474;2023-09-30T02:31:42;36.63;;;11.48;;
65387;SDS011;51992;53.528;49.474;2023-09-30T02:34:08;30.50;;;10.27;;
65387;SDS011;51992;53.528;49.474;2023-09-30T02:36:34;16.98;;;6.45;;
65387;SDS011;51992;53.528;49.474;2023-09-30T02:39:04;11.00;;;3.88;;
65387;SDS011;51992;53.528;49.474;2023-09-30T02:41:30;6.05;;;2.88;;
65387;SDS011;51992;53.528;49.474;2023-09-30T02:43:56;4.22;;;2.38;;
65387;SDS011;51992;53.528;49.474;2023-09-30T02:46:21;2.95;;;2.30;;
65387;SDS011;51992;53.528;49.474;2023-09-30T02:48:47;3.88;;;2.03;;
65387;SDS011;51992;53.528;49.474;2023-09-30T02:51:13;4.72;;;2.40;;
65387;SDS011;51992;53.528;49.474;2023-09-30T02:53:40;4.90;;;2.17;;
65387;SDS011;51992;53.528;49.474;2023-09-30T02:56:05;4.13;;;2.10;;
65387;SDS011;51992;53.528;49.474;2023-09-30T02:58:32;6.60;;;2.40;;
65387;SDS011;51992;53.528;49.474;2023-09-30T03:00:57;5.13;;;2.47;;
65387;SDS011;51992;53.528;49.474;2023-09-30T03:03:25;6.72;;;2.10;;
65387;SDS011;51992;53.528;49.474;2023-09-30T03:05:51;7.22;;;2.72;;
65387;SDS011;51992;53.528;49.474;2023-09-30T03:08:17;7.13;;;2.50;;
65387;SDS011;51992;53.528;49.474;2023-09-30T03:10:43;5.70;;;2.15;;
65387;SDS011;51992;53.528;49.474;2023-09-30T03:13:08;7.20;;;2.53;;
65387;SDS011;51992;53.528;49.474;2023-09-30T03:15:37;6.10;;;2.95;;
65387;SDS011;51992;53.528;49.474;2023-09-30T03:18:04;4.88;;;2.80;;
65387;SDS011;51992;53.528;49.474;2023-09-30T03:20:30;12.27;;;2.95;;
65387;SDS011;51992;53.528;49.474;2023-09-30T03:22:56;3.97;;;2.40;;
65387;SDS011;51992;53.528;49.474;2023-09-30T03:25:22;5.18;;;2.60;;
65387;SDS011;51992;53.528;49.474;2023-09-30T03:27:48;6.80;;;3.17;;
65387;SDS011;51992;53.528;49.474;2023-09-30T03:30:14;11.85;;;3.90;;
65387;SDS011;51992;53.528;49.474;2023-09-30T03:32:40;10.93;;;2.97;;
65387;SDS011;51992;53.528;49.474;2023-09-30T03:35:07;4.70;;;2.30;;
65387;SDS011;51992;53.528;49.474;2023-09-30T03:37:36;3.78;;;2.55;;
65387;SDS011;51992;53.528;49.474;2023-09-30T03:40:02;5.57;;;2.08;;
65387;SDS011;51992;53.528;49.474;2023-09-30T03:42:39;2.83;;;2.00;;
65387;SDS011;51992;53.528;49.474;2023-09-30T03:45:05;2.10;;;1.77;;
65387;SDS011;51992;53.528;49.474;2023-09-30T03:47:34;2.15;;;1.98;;
65387;SDS011;51992;53.528;49.474;2023-09-30T03:49:59;4.45;;;2.30;;
65387;SDS011;51992;53.528;49.474;2023-09-30T03:52:25;4.05;;;2.20;;
65387;SDS011;51992;53.528;49.474;2023-09-30T03:54:52;3.45;;;2.47;;
65387;SDS011;51992;53.528;49.474;2023-09-30T03:57:19;9.30;;;2.78;;
65387;SDS011;51992;53.528;49.474;2023-09-30T03:59:45;6.88;;;2.97;;
65387;SDS011;51992;53.528;49.474;2023-09-30T04:02:13;8.98;;;3.22;;
65387;SDS011;51992;53.528;49.474;2023-09-30T04:04:40;13.75;;;2.85;;
65387;SDS011;51992;53.528;49.474;2023-09-30T04:07:06;5.28;;;2.80;;
65387;SDS011;51992;53.528;49.474;2023-09-30T04:09:35;5.15;;;2.22;;
65387;SDS011;51992;53.528;49.474;2023-09-30T04:12:01;3.05;;;2.20;;
65387;SDS011;51992;53.528;49.474;2023-09-30T04:14:27;5.78;;;2.45;;
65387;SDS011;51992;53.528;49.474;2023-09-30T04:16:52;5.80;;;2.30;;
65387;SDS011;51992;53.528;49.474;2023-09-30T04:19:19;5.18;;;2.45;;
65387;SDS011;51992;53.528;49.474;2023-09-30T04:21:45;7.15;;;2.42;;
65387;SDS011;51992;53.528;49.474;2023-09-30T04:24:12;5.50;;;2.50;;
65387;SDS011;51992;53.528;49.474;2023-09-30T04:26:37;5.72;;;2.83;;
65387;SDS011;51992;53.528;49.474;2023-09-30T04:29:03;6.13;;;2.72;;
65387;SDS011;51992;53.528;49.474;2023-09-30T04:31:30;10.68;;;3.60;;
65387;SDS011;51992;53.528;49.474;2023-09-30T04:33:55;16.50;;;5.18;;
65387;SDS011;51992;53.528;49.474;2023-09-30T04:36:23;8.60;;;3.72;;
65387;SDS011;51992;53.528;49.474;2023-09-30T04:38:49;11.38;;;4.05;;
65387;SDS011;51992;53.528;49.474;2023-09-30T04:41:14;8.55;;;3.67;;
65387;SDS011;51992;53.528;49.474;2023-09-30T04:43:41;6.25;;;3.22;;
65387;SDS011;51992;53.528;49.474;2023-09-30T04:46:08;5.05;;;2.95;;
65387;SDS011;51992;53.528;49.474;2023-09-30T04:48:34;6.10;;;2.60;;
65387;SDS011;51992;53.528;49.474;2023-09-30T04:51:00;9.82;;;3.00;;
65387;SDS011;51992;53.528;49.474;2023-09-30T04:53:30;9.35;;;3.67;;
65387;SDS011;51992;53.528;49.474;2023-09-30T04:55:56;11.13;;;3.22;;
65387;SDS011;51992;53.528;49.474;2023-09-30T04:58:21;13.50;;;3.92;;
65387;SDS011;51992;53.528;49.474;2023-09-30T05:00:49;9.02;;;3.38;;
65387;SDS011;51992;53.528;49.474;2023-09-30T05:03:14;11.48;;;3.17;;
65387;SDS011;51992;53.528;49.474;2023-09-30T05:05:41;42.90;;;6.70;;
65387;SDS011;51992;53.528;49.474;2023-09-30T05:08:07;53.28;;;5.82;;
65387;SDS011;51992;53.528;49.474;2023-09-30T05:10:33;35.17;;;5.15;;
65387;SDS011;51992;53.528;49.474;2023-09-30T05:12:59;16.15;;;4.05;;
65387;SDS011;51992;53.528;49.474;2023-09-30T05:15:24;11.07;;;4.05;;
65387;SDS011;51992;53.528;49.474;2023-09-30T05:17:51;12.30;;;4.53;;
65387;SDS011;51992;53.528;49.474;2023-09-30T05:20:16;12.77;;;3.75;;
65387;SDS011;51992;53.528;49.474;2023-09-30T05:22:46;47.10;;;5.75;;
65387;SDS011;51992;53.528;49.474;2023-09-30T05:25:12;13.90;;;3.50;;
65387;SDS011;51992;53.528;49.474;2023-09-30T05:27:38;7.25;;;3.03;;
65387;SDS011;51992;53.528;49.474;2023-09-30T05:30:04;6.57;;;2.60;;
65387;SDS011;51992;53.528;49.474;2023-09-30T05:32:31;4.25;;;2.60;;
65387;SDS011;51992;53.528;49.474;2023-09-30T05:34:57;6.85;;;3.00;;
65387;SDS011;51992;53.528;49.474;2023-09-30T05:37:23;17.10;;;3.30;;
65387;SDS011;51992;53.528;49.474;2023-09-30T05:39:49;10.20;;;2.83;;
65387;SDS011;51992;53.528;49.474;2023-09-30T05:42:18;6.35;;;3.05;;
65387;SDS011;51992;53.528;49.474;2023-09-30T05:44:44;7.65;;;3.30;;
65387;SDS011;51992;53.528;49.474;2023-09-30T05:47:11;10.43;;;3.92;;
65387;SDS011;51992;53.528;49.474;2023-09-30T05:49:37;7.20;;;2.30;;
65387;SDS011;51992;53.528;49.474;2023-09-30T05:52:03;11.18;;;3.80;;
65387;SDS011;51992;53.528;49.474;2023-09-30T05:54:30;8.30;;;2.90;;
65387;SDS011;51992;53.528;49.474;2023-09-30T05:56:56;19.30;;;5.68;;
65387;SDS011;51992;53.528;49.474;2023-09-30T05:59:22;21.48;;;5.30;;
65387;SDS011;51992;53.528;49.474;2023-09-30T06:01:50;13.05;;;2.88;;
65387;SDS011;51992;53.528;49.474;2023-09-30T06:04:16;3.55;;;2.60;;
65387;SDS011;51992;53.528;49.474;2023-09-30T06:06:41;15.95;;;4.80;;
65387;SDS011;51992;53.528;49.474;2023-09-30T06:09:08;18.52;;;4.55;;
65387;SDS011;51992;53.528;49.474;2023-09-30T06:11:34;14.48;;;4.65;;
65387;SDS011;51992;53.528;49.474;2023-09-30T06:14:01;19.48;;;7.22;;
65387;SDS011;51992;53.528;49.474;2023-09-30T06:16:27;17.45;;;6.38;;
65387;SDS011;51992;53.528;49.474;2023-09-30T06:18:55;29.45;;;13.55;;
65387;SDS011;51992;53.528;49.474;2023-09-30T06:21:21;22.75;;;8.00;;
65387;SDS011;51992;53.528;49.474;2023-09-30T06:23:47;17.02;;;7.25;;
65387;SDS011;51992;53.528;49.474;2023-09-30T06:26:14;18.98;;;7.25;;
65387;SDS011;51992;53.528;49.474;2023-09-30T06:28:40;20.30;;;8.35;;
65387;SDS011;51992;53.528;49.474;2023-09-30T06:31:09;28.35;;;9.23;;
65387;SDS011;51992;53.528;49.474;2023-09-30T06:33:36;27.33;;;9.23;;
65387;SDS011;51992;53.528;49.474;2023-09-30T06:36:03;20.58;;;7.70;;
65387;SDS011;51992;53.528;49.474;2023-09-30T06:38:33;22.83;;;6.53;;
65387;SDS011;51992;53.528;49.474;2023-09-30T06:40:58;13.40;;;6.10;;
65387;SDS011;51992;53.528;49.474;2023-09-30T06:43:25;7.82;;;3.67;;
65387;SDS011;51992;53.528;49.474;2023-09-30T06:45:51;26.88;;;10.27;;
65387;SDS011;51992;53.528;49.474;2023-09-30T06:48:16;9.85;;;3.30;;
65387;SDS011;51992;53.528;49.474;2023-09-30T06:50:46;14.52;;;5.00;;
65387;SDS011;51992;53.528;49.474;2023-09-30T06:53:17;11.23;;;4.63;;
65387;SDS011;51992;53.528;49.474;2023-09-30T06:55:43;14.23;;;5.85;;
65387;SDS011;51992;53.528;49.474;2023-09-30T06:58:09;9.20;;;3.88;;
65387;SDS011;51992;53.528;49.474;2023-09-30T07:00:36;7.35;;;2.95;;
65387;SDS011;51992;53.528;49.474;2023-09-30T07:03:02;8.30;;;3.13;;
65387;SDS011;51992;53.528;49.474;2023-09-30T07:05:28;14.60;;;3.70;;
65387;SDS011;51992;53.528;49.474;2023-09-30T07:07:54;23.48;;;3.60;;
65387;SDS011;51992;53.528;49.474;2023-09-30T07:10:20;12.38;;;3.30;;
65387;SDS011;51992;53.528;49.474;2023-09-30T07:12:46;19.75;;;5.32;;
65387;SDS011;51992;53.528;49.474;2023-09-30T07:15:11;12.00;;;3.60;;
65387;SDS011;51992;53.528;49.474;2023-09-30T07:17:39;9.50;;;3.63;;
65387;SDS011;51992;53.528;49.474;2023-09-30T07:20:05;8.18;;;3.15;;
65387;SDS011;51992;53.528;49.474;2023-09-30T07:22:31;12.07;;;4.10;;
65387;SDS011;51992;53.528;49.474;2023-09-30T07:24:57;9.60;;;4.70;;
65387;SDS011;51992;53.528;49.474;2023-09-30T07:27:25;10.13;;;4.60;;
65387;SDS011;51992;53.528;49.474;2023-09-30T07:29:51;10.35;;;4.47;;
65387;SDS011;51992;53.528;49.474;2023-09-30T07:32:17;10.93;;;4.72;;
65387;SDS011;51992;53.528;49.474;2023-09-30T07:34:43;18.50;;;4.95;;
65387;SDS011;51992;53.528;49.474;2023-09-30T07:37:09;5.53;;;2.60;;
65387;SDS011;51992;53.528;49.474;2023-09-30T07:39:35;5.70;;;1.85;;
65387;SDS011;51992;53.528;49.474;2023-09-30T07:42:01;26.55;;;4.53;;
65387;SDS011;51992;53.528;49.474;2023-09-30T07:44:26;6.00;;;2.03;;
65387;SDS011;51992;53.528;49.474;2023-09-30T07:46:52;2.63;;;1.40;;
65387;SDS011;51992;53.528;49.474;2023-09-30T07:49:18;38.15;;;4.85;;
65387;SDS011;51992;53.528;49.474;2023-09-30T07:51:45;18.60;;;3.35;;
65387;SDS011;51992;53.528;49.474;2023-09-30T07:54:11;13.85;;;5.40;;
65387;SDS011;51992;53.528;49.474;2023-09-30T07:56:37;14.25;;;4.93;;
65387;SDS011;51992;53.528;49.474;2023-09-30T07:59:04;6.30;;;1.77;;
65387;SDS011;51992;53.528;49.474;2023-09-30T08:01:31;8.20;;;2.70;;
65387;SDS011;51992;53.528;49.474;2023-09-30T08:03:56;12.95;;;3.20;;
65387;SDS011;51992;53.528;49.474;2023-09-30T08:06:22;11.32;;;4.13;;
65387;SDS011;51992;53.528;49.474;2023-09-30T08:08:48;13.93;;;5.57;;
65387;SDS011;51992;53.528;49.474;2023-09-30T08:11:14;16.52;;;4.78;;
65387;SDS011;51992;53.528;49.474;2023-09-30T08:13:40;9.15;;;3.35;;
65387;SDS011;51992;53.528;49.474;2023-09-30T08:16:06;12.90;;;6.10;;
65387;SDS011;51992;53.528;49.474;2023-09-30T08:18:32;15.38;;;4.30;;
65387;SDS011;51992;53.528;49.474;2023-09-30T08:20:58;6.72;;;3.03;;
65387;SDS011;51992;53.528;49.474;2023-09-30T08:23:24;9.90;;;3.67;;
65387;SDS011;51992;53.528;49.474;2023-09-30T08:25:49;4.00;;;2.40;;
65387;SDS011;51992;53.528;49.474;2023-09-30T08:28:16;5.55;;;1.92;;
65387;SDS011;51992;53.528;49.474;2023-09-30T08:30:41;11.68;;;2.50;;
65387;SDS011;51992;53.528;49.474;2023-09-30T08:33:08;3.22;;;1.60;;
65387;SDS011;51992;53.528;49.474;2023-09-30T08:35:37;3.70;;;2.13;;
65387;SDS011;51992;53.528;49.474;2023-09-30T08:38:03;11.52;;;2.85;;
65387;SDS011;51992;53.528;49.474;2023-09-30T08:40:29;11.52;;;4.07;;
65387;SDS011;51992;53.528;49.474;2023-09-30T08:42:55;3.03;;;2.20;;
65387;SDS011;51992;53.528;49.474;2023-09-30T08:45:20;25.58;;;3.53;;
65387;SDS011;51992;53.528;49.474;2023-09-30T08:47:46;4.88;;;1.83;;
65387;SDS011;51992;53.528;49.474;2023-09-30T08:50:12;6.47;;;1.10;;
65387;SDS011;51992;53.528;49.474;2023-09-30T08:52:40;5.68;;;1.10;;
65387;SDS011;51992;53.528;49.474;2023-09-30T08:55:09;4.63;;;0.90;;
65387;SDS011;51992;53.528;49.474;2023-09-30T08:57:39;16.42;;;2.22;;
65387;SDS011;51992;53.528;49.474;2023-09-30T09:00:06;2.60;;;1.40;;
65387;SDS011;51992;53.528;49.474;2023-09-30T09:02:34;2.22;;;1.60;;
65387;SDS011;51992;53.528;49.474;2023-09-30T09:05:00;4.95;;;1.40;;
65387;SDS011;51992;53.528;49.474;2023-09-30T09:07:27;6.80;;;1.48;;
65387;SDS011;51992;53.528;49.474;2023-09-30T09:10:06;7.07;;;2.50;;
65387;SDS011;51992;53.528;49.474;2023-09-30T09:12:33;5.13;;;1.57;;
65387;SDS011;51992;53.528;49.474;2023-09-30T09:14:59;3.30;;;1.05;;
65387;SDS011;51992;53.528;49.474;2023-09-30T09:17:39;1.73;;;1.63;;
65387;SDS011;51992;53.528;49.474;2023-09-30T09:20:05;3.47;;;2.30;;
65387;SDS011;51992;53.528;49.474;2023-09-30T09:22:38;3.47;;;2.00;;
65387;SDS011;51992;53.528;49.474;2023-09-30T09:25:04;3.50;;;2.38;;
65387;SDS011;51992;53.528;49.474;2023-09-30T09:27:29;8.85;;;1.50;;
65387;SDS011;51992;53.528;49.474;2023-09-30T09:30:00;2.92;;;1.50;;
65387;SDS011;51992;53.528;49.474;2023-09-30T09:32:39;3.07;;;1.40;;
65387;SDS011;51992;53.528;49.474;2023-09-30T09:35:04;5.03;;;1.85;;
65387;SDS011;51992;53.528;49.474;2023-09-30T09:37:31;11.43;;;4.63;;
65387;SDS011;51992;53.528;49.474;2023-09-30T09:39:57;5.63;;;2.08;;
65387;SDS011;51992;53.528;49.474;2023-09-30T09:42:27;4.88;;;1.25;;
65387;SDS011;51992;53.528;49.474;2023-09-30T09:44:54;5.28;;;1.52;;
65387;SDS011;51992;53.528;49.474;2023-09-30T09:47:20;5.38;;;0.88;;
65387;SDS011;51992;53.528;49.474;2023-09-30T09:49:47;1.73;;;0.90;;
65387;SDS011;51992;53.528;49.474;2023-09-30T09:52:13;3.67;;;1.42;;
65387;SDS011;51992;53.528;49.474;2023-09-30T09:54:40;1.15;;;0.93;;
65387;SDS011;51992;53.528;49.474;2023-09-30T09:57:06;4.85;;;1.40;;
65387;SDS011;51992;53.528;49.474;2023-09-30T09:59:36;5.80;;;1.17;;
65387;SDS011;51992;53.528;49.474;2023-09-30T10:02:03;5.22;;;1.75;;
65387;SDS011;51992;53.528;49.474;2023-09-30T10:04:35;6.40;;;1.38;;
65387;SDS011;51992;53.528;49.474;2023-09-30T10:07:01;14.05;;;1.90;;
65387;SDS011;51992;53.528;49.474;2023-09-30T10:09:27;2.78;;;1.27;;
65387;SDS011;51992;53.528;49.474;2023-09-30T10:11:57;0.85;;;0.85;;
65387;SDS011;51992;53.528;49.474;2023-09-30T10:14:32;1.10;;;0.80;;
65387;SDS011;51992;53.528;49.474;2023-09-30T10:16:58;5.88;;;2.67;;
65387;SDS011;51992;53.528;49.474;2023-09-30T10:19:24;5.55;;;2.40;;
65387;SDS011;51992;53.528;49.474;2023-09-30T10:24:35;5.03;;;2.70;;
65387;SDS011;51992;53.528;49.474;2023-09-30T10:29:45;10.63;;;1.38;;
65387;SDS011;51992;53.528;49.474;2023-09-30T10:32:11;52.72;;;5.40;;
65387;SDS011;51992;53.528;49.474;2023-09-30T10:34:36;6.10;;;1.52;;
65387;SDS011;51992;53.528;49.474;2023-09-30T10:37:21;1.02;;;0.75;;
65387;SDS011;51992;53.528;49.474;2023-09-30T10:39:56;3.35;;;1.48;;
65387;SDS011;51992;53.528;49.474;2023-09-30T10:45:08;3.75;;;1.08;;
65387;SDS011;51992;53.528;49.474;2023-09-30T10:47:54;4.18;;;1.50;;
65387;SDS011;51992;53.528;49.474;2023-09-30T10:53:04;18.98;;;6.95;;
65387;SDS011;51992;53.528;49.474;2023-09-30T10:55:33;10.50;;;4.40;;
65387;SDS011;51992;53.528;49.474;2023-09-30T10:57:58;6.22;;;1.90;;
65387;SDS011;51992;53.528;49.474;2023-09-30T11:00:24;5.85;;;3.25;;
65387;SDS011;51992;53.528;49.474;2023-09-30T11:02:50;19.00;;;5.82;;
65387;SDS011;51992;53.528;49.474;2023-09-30T11:05:17;17.08;;;6.93;;
65387;SDS011;51992;53.528;49.474;2023-09-30T11:07:43;8.20;;;3.03;;
65387;SDS011;51992;53.528;49.474;2023-09-30T11:10:15;3.17;;;2.03;;
65387;SDS011;51992;53.528;49.474;2023-09-30T11:12:53;6.63;;;2.10;;
65387;SDS011;51992;53.528;49.474;2023-09-30T11:15:19;2.65;;;1.80;;
65387;SDS011;51992;53.528;49.474;2023-09-30T11:17:44;6.78;;;2.63;;
65387;SDS011;51992;53.528;49.474;2023-09-30T11:20:11;16.20;;;3.75;;
65387;SDS011;51992;53.528;49.474;2023-09-30T11:22:36;3.65;;;1.55;;
65387;SDS011;51992;53.528;49.474;2023-09-30T11:25:02;5.00;;;1.77;;
65387;SDS011;51992;53.528;49.474;2023-09-30T11:27:28;5.35;;;2.50;;
65387;SDS011;51992;53.528;49.474;2023-09-30T11:29:56;6.28;;;3.22;;
65387;SDS011;51992;53.528;49.474;2023-09-30T11:32:26;7.80;;;2.30;;
65387;SDS011;51992;53.528;49.474;2023-09-30T11:34:52;4.68;;;2.38;;
65387;SDS011;51992;53.528;49.474;2023-09-30T11:37:18;7.28;;;3.47;;
65387;SDS011;51992;53.528;49.474;2023-09-30T11:39:44;6.15;;;3.22;;
65387;SDS011;51992;53.528;49.474;2023-09-30T11:42:16;14.88;;;5.35;;
65387;SDS011;51992;53.528;49.474;2023-09-30T11:44:48;6.00;;;2.22;;
65387;SDS011;51992;53.528;49.474;2023-09-30T11:47:15;4.93;;;1.40;;
65387;SDS011;51992;53.528;49.474;2023-09-30T11:49:44;10.68;;;2.65;;
65387;SDS011;51992;53.528;49.474;2023-09-30T11:52:25;12.52;;;3.70;;
65387;SDS011;51992;53.528;49.474;2023-09-30T11:54:51;34.40;;;5.85;;
65387;SDS011;51992;53.528;49.474;2023-09-30T11:57:17;2.47;;;1.73;;
65387;SDS011;51992;53.528;49.474;2023-09-30T11:59:44;14.40;;;3.40;;
65387;SDS011;51992;53.528;49.474;2023-09-30T12:02:11;10.65;;;4.07;;
65387;SDS011;51992;53.528;49.474;2023-09-30T12:04:37;4.88;;;2.47;;
65387;SDS011;51992;53.528;49.474;2023-09-30T12:07:03;29.27;;;7.95;;
65387;SDS011;51992;53.528;49.474;2023-09-30T12:09:29;9.57;;;4.00;;
65387;SDS011;51992;53.528;49.474;2023-09-30T12:11:55;8.50;;;3.58;;
65387;SDS011;51992;53.528;49.474;2023-09-30T12:14:23;2.33;;;1.40;;
65387;SDS011;51992;53.528;49.474;2023-09-30T12:16:49;4.55;;;1.70;;
65387;SDS011;51992;53.528;49.474;2023-09-30T12:19:16;19.55;;;3.03;;
65387;SDS011;51992;53.528;49.474;2023-09-30T12:21:43;8.48;;;2.08;;
65387;SDS011;51992;53.528;49.474;2023-09-30T12:24:12;7.45;;;1.65;;
65387;SDS011;51992;53.528;49.474;2023-09-30T12:26:50;14.38;;;2.60;;
65387;SDS011;51992;53.528;49.474;2023-09-30T12:29:18;7.75;;;1.30;;
65387;SDS011;51992;53.528;49.474;2023-09-30T12:31:44;111.95;;;9.75;;
65387;SDS011;51992;53.528;49.474;2023-09-30T12:34:10;14.13;;;2.67;;
65387;SDS011;51992;53.528;49.474;2023-09-30T12:36:36;2.67;;;1.60;;
65387;SDS011;51992;53.528;49.474;2023-09-30T12:39:02;9.40;;;3.95;;
65387;SDS011;51992;53.528;49.474;2023-09-30T12:41:42;6.03;;;2.50;;
65387;SDS011;51992;53.528;49.474;2023-09-30T12:44:08;3.75;;;1.60;;
65387;SDS011;51992;53.528;49.474;2023-09-30T12:46:34;8.90;;;2.90;;
65387;SDS011;51992;53.528;49.474;2023-09-30T12:49:11;11.85;;;3.92;;
65387;SDS011;51992;53.528;49.474;2023-09-30T12:51:37;12.10;;;5.50;;
65387;SDS011;51992;53.528;49.474;2023-09-30T12:54:03;18.38;;;5.63;;
65387;SDS011;51992;53.528;49.474;2023-09-30T12:56:29;15.93;;;5.93;;
65387;SDS011;51992;53.528;49.474;2023-09-30T12:58:56;8.48;;;3.80;;
65387;SDS011;51992;53.528;49.474;2023-09-30T13:01:22;13.15;;;3.28;;
65387;SDS011;51992;53.528;49.474;2023-09-30T13:03:48;15.25;;;6.25;;
65387;SDS011;51992;53.528;49.474;2023-09-30T13:06:14;17.17;;;8.75;;
65387;SDS011;51992;53.528;49.474;2023-09-30T13:08:41;8.35;;;3.17;;
65387;SDS011;51992;53.528;49.474;2023-09-30T13:11:07;4.63;;;1.77;;
65387;SDS011;51992;53.528;49.474;2023-09-30T13:13:33;2.60;;;1.70;;
65387;SDS011;51992;53.528;49.474;2023-09-30T13:16:00;9.00;;;1.65;;
65387;SDS011;51992;53.528;49.474;2023-09-30T13:18:26;13.73;;;5.88;;
65387;SDS011;51992;53.528;49.474;2023-09-30T13:20:52;19.70;;;6.40;;
65387;SDS011;51992;53.528;49.474;2023-09-30T13:23:18;6.45;;;3.25;;
65387;SDS011;51992;53.528;49.474;2023-09-30T13:25:44;4.75;;;1.92;;
65387;SDS011;51992;53.528;49.474;2023-09-30T13:28:10;6.72;;;3.42;;
65387;SDS011;51992;53.528;49.474;2023-09-30T13:30:35;15.90;;;7.30;;
65387;SDS011;51992;53.528;49.474;2023-09-30T13:33:01;20.60;;;8.73;;
65387;SDS011;51992;53.528;49.474;2023-09-30T13:35:27;14.60;;;4.63;;
65387;SDS011;51992;53.528;49.474;2023-09-30T13:37:53;6.47;;;2.28;;
65387;SDS011;51992;53.528;49.474;2023-09-30T13:40:18;4.50;;;2.03;;
65387;SDS011;51992;53.528;49.474;2023-09-30T13:42:45;6.18;;;2.25;;
65387;SDS011;51992;53.528;49.474;2023-09-30T13:45:10;2.58;;;1.92;;
65387;SDS011;51992;53.528;49.474;2023-09-30T13:47:36;3.42;;;1.92;;
65387;SDS011;51992;53.528;49.474;2023-09-30T13:50:02;4.18;;;1.88;;
65387;SDS011;51992;53.528;49.474;2023-09-30T13:52:33;4.63;;;2.00;;
65387;SDS011;51992;53.528;49.474;2023-09-30T13:54:59;9.50;;;1.98;;
65387;SDS011;51992;53.528;49.474;2023-09-30T13:57:25;9.45;;;2.90;;
65387;SDS011;51992;53.528;49.474;2023-09-30T13:59:51;18.70;;;4.50;;
65387;SDS011;51992;53.528;49.474;2023-09-30T14:02:16;12.07;;;5.13;;
65387;SDS011;51992;53.528;49.474;2023-09-30T14:04:42;12.63;;;4.70;;
65387;SDS011;51992;53.528;49.474;2023-09-30T14:07:08;6.55;;;3.10;;
65387;SDS011;51992;53.528;49.474;2023-09-30T14:09:33;13.95;;;5.43;;
65387;SDS011;51992;53.528;49.474;2023-09-30T14:11:59;10.98;;;5.40;;
65387;SDS011;51992;53.528;49.474;2023-09-30T14:14:25;17.35;;;6.82;;
65387;SDS011;51992;53.528;49.474;2023-09-30T14:16:51;18.95;;;7.68;;
65387;SDS011;51992;53.528;49.474;2023-09-30T14:19:17;9.55;;;3.97;;
65387;SDS011;51992;53.528;49.474;2023-09-30T14:21:43;8.20;;;3.60;;
65387;SDS011;51992;53.528;49.474;2023-09-30T14:24:09;9.20;;;4.40;;
65387;SDS011;51992;53.528;49.474;2023-09-30T14:26:36;6.68;;;2.95;;
65387;SDS011;51992;53.528;49.474;2023-09-30T14:29:02;6.05;;;2.25;;
65387;SDS011;51992;53.528;49.474;2023-09-30T14:31:27;4.18;;;2.22;;
65387;SDS011;51992;53.528;49.474;2023-09-30T14:33:53;2.50;;;1.90;;